createdAt,value
2022-12-11T00:01:19.786Z,3.00
2022-12-11T00:03:47.682Z,2.80
2022-12-11T00:06:19.015Z,3.00
2022-12-11T00:08:45.792Z,3.10
2022-12-11T00:11:14.918Z,3.20
2022-12-11T00:13:42.625Z,2.75
2022-12-11T00:16:10.161Z,3.05
2022-12-11T00:18:37.161Z,3.00
2022-12-11T00:21:10.778Z,3.03
2022-12-11T00:23:37.621Z,2.80
2022-12-11T00:26:09.652Z,2.90
2022-12-11T00:28:36.659Z,3.10
2022-12-11T00:31:08.183Z,3.08
2022-12-11T00:33:35.110Z,2.50
2022-12-11T00:36:01.952Z,2.65
2022-12-11T00:38:29.374Z,3.25
2022-12-11T00:40:59.933Z,3.00
2022-12-11T00:43:26.853Z,2.88
2022-12-11T00:45:53.681Z,2.88
2022-12-11T00:48:20.478Z,2.72
2022-12-11T00:50:47.198Z,2.92
2022-12-11T00:53:14.186Z,2.85
2022-12-11T00:55:43.174Z,2.90
2022-12-11T00:58:11.698Z,2.70
2022-12-11T01:00:39.778Z,2.90
2022-12-11T01:03:09.699Z,2.80
2022-12-11T01:05:36.851Z,2.67
2022-12-11T01:08:04.330Z,2.85
2022-12-11T01:10:32.043Z,2.70
2022-12-11T01:13:01.523Z,2.60
2022-12-11T01:15:38.669Z,2.63
2022-12-11T01:18:07.895Z,2.60
2022-12-11T01:20:34.760Z,2.53
2022-12-11T01:23:01.894Z,2.83
2022-12-11T01:25:28.764Z,2.85
2022-12-11T01:27:56.264Z,3.10
2022-12-11T01:30:25.277Z,2.53
2022-12-11T01:32:52.452Z,2.70
2022-12-11T01:35:19.878Z,2.88
2022-12-11T01:37:47.144Z,2.58
2022-12-11T01:40:16.545Z,2.70
2022-12-11T01:42:43.747Z,2.53
2022-12-11T01:45:22.501Z,2.78
2022-12-11T01:47:54.379Z,2.85
2022-12-11T01:50:21.324Z,2.58
2022-12-11T01:52:49.651Z,2.75
2022-12-11T01:55:18.280Z,2.70
2022-12-11T01:57:49.419Z,2.90
2022-12-11T02:00:16.627Z,2.72
2022-12-11T02:02:43.942Z,2.78
2022-12-11T02:05:12.960Z,2.97
2022-12-11T02:10:12.735Z,2.80
2022-12-11T02:13:05.068Z,2.72
2022-12-11T02:15:39.006Z,2.50
2022-12-11T02:18:19.076Z,2.50
2022-12-11T02:21:09.178Z,2.50
2022-12-11T02:24:07.068Z,2.80
2022-12-11T02:27:07.915Z,2.70
2022-12-11T02:29:59.230Z,2.50
2022-12-11T02:32:47.636Z,2.60
2022-12-11T02:35:32.558Z,2.47
2022-12-11T02:38:03.907Z,2.67
2022-12-11T02:40:35.016Z,2.78
2022-12-11T02:43:06.258Z,2.85
2022-12-11T02:45:34.844Z,2.95
2022-12-11T02:48:04.022Z,2.53
2022-12-11T02:50:31.577Z,2.83
2022-12-11T02:53:02.894Z,2.55
2022-12-11T02:55:32.415Z,2.40
2022-12-11T02:58:21.686Z,2.90
2022-12-11T03:00:48.526Z,2.78
2022-12-11T03:03:16.284Z,2.70
2022-12-11T03:05:43.640Z,2.70
2022-12-11T03:08:11.089Z,2.60
2022-12-11T03:10:37.934Z,2.50
2022-12-11T03:13:05.309Z,2.80
2022-12-11T03:15:48.481Z,2.60
2022-12-11T03:18:18.895Z,2.70
2022-12-11T03:20:54.623Z,2.60
2022-12-11T03:23:30.909Z,2.58
2022-12-11T03:26:03.645Z,2.80
2022-12-11T03:28:32.926Z,2.60
2022-12-11T03:31:05.519Z,2.70
2022-12-11T03:33:37.761Z,2.60
2022-12-11T03:36:16.673Z,2.83
2022-12-11T03:38:58.310Z,2.58
2022-12-11T03:41:27.830Z,2.67
2022-12-11T03:43:57.310Z,2.65
2022-12-11T03:46:32.355Z,2.45
2022-12-11T03:49:02.898Z,2.58
2022-12-11T03:51:32.472Z,2.72
2022-12-11T03:53:59.721Z,2.38
2022-12-11T03:56:31.871Z,2.43
2022-12-11T03:58:58.938Z,2.60
2022-12-11T04:01:26.185Z,2.63
2022-12-11T04:03:53.113Z,2.60
2022-12-11T04:06:20.432Z,2.70
2022-12-11T04:08:47.203Z,2.53
2022-12-11T04:11:32.534Z,2.70
2022-12-11T04:14:17.858Z,2.63
2022-12-11T04:16:44.674Z,2.67
2022-12-11T04:19:30.121Z,2.53
2022-12-11T04:22:15.262Z,2.53
2022-12-11T04:24:42.046Z,2.40
2022-12-11T04:27:08.808Z,2.45
2022-12-11T04:29:35.591Z,2.67
2022-12-11T04:32:02.850Z,2.22
2022-12-11T04:34:30.182Z,2.30
2022-12-11T04:36:57.384Z,2.67
2022-12-11T04:39:24.127Z,2.40
2022-12-11T04:41:51.285Z,2.50
2022-12-11T04:44:18.053Z,2.50
2022-12-11T04:46:44.808Z,2.72
2022-12-11T04:49:12.624Z,2.80
2022-12-11T04:51:39.365Z,2.70
2022-12-11T04:54:06.234Z,2.45
2022-12-11T04:56:33.407Z,2.42
2022-12-11T04:59:00.949Z,2.40
2022-12-11T05:01:30.182Z,2.38
2022-12-11T05:03:59.352Z,2.40
2022-12-11T05:06:26.110Z,2.50
2022-12-11T05:08:53.471Z,2.42
2022-12-11T05:11:20.767Z,2.60
2022-12-11T05:13:50.046Z,2.50
2022-12-11T05:16:17.524Z,2.72
2022-12-11T05:18:44.568Z,2.33
2022-12-11T05:21:14.471Z,2.50
2022-12-11T05:23:42.164Z,2.58
2022-12-11T05:26:13.204Z,2.60
2022-12-11T05:28:40.735Z,2.42
2022-12-11T05:31:17.055Z,2.70
2022-12-11T05:33:46.171Z,2.40
2022-12-11T05:36:38.009Z,2.85
2022-12-11T05:39:05.806Z,2.60
2022-12-11T05:41:34.299Z,2.60
2022-12-11T05:44:01.827Z,2.50
2022-12-11T05:46:30.770Z,2.03
2022-12-11T05:49:00.673Z,2.60
2022-12-11T05:51:29.039Z,2.42
2022-12-11T05:53:56.860Z,2.67
2022-12-11T05:56:27.614Z,2.42
2022-12-11T05:58:55.647Z,2.38
2022-12-11T06:01:28.919Z,2.60
2022-12-11T06:03:56.710Z,2.55
2022-12-11T06:06:23.893Z,2.78
2022-12-11T06:08:56.051Z,2.50
2022-12-11T06:11:24.261Z,3.00
2022-12-11T06:13:52.811Z,2.83
2022-12-11T06:16:20.331Z,2.83
2022-12-11T06:18:48.261Z,2.60
2022-12-11T06:21:24.007Z,2.80
2022-12-11T06:23:53.028Z,2.67
2022-12-11T06:26:20.876Z,3.00
2022-12-11T06:28:48.420Z,2.70
2022-12-11T06:31:15.598Z,2.72
2022-12-11T06:33:43.356Z,2.80
2022-12-11T06:36:18.714Z,2.60
2022-12-11T06:38:45.986Z,3.13
2022-12-11T06:41:12.930Z,2.77
2022-12-11T06:43:40.989Z,2.92
2022-12-11T06:46:13.594Z,2.72
2022-12-11T06:48:42.203Z,3.10
2022-12-11T06:51:13.150Z,2.58
2022-12-11T06:53:40.728Z,2.88
2022-12-11T06:56:11.166Z,2.58
2022-12-11T06:58:38.649Z,2.92
2022-12-11T07:01:17.236Z,2.63
2022-12-11T07:03:44.709Z,2.92
2022-12-11T07:06:14.570Z,2.60
2022-12-11T07:08:41.671Z,2.85
2022-12-11T07:11:12.465Z,2.60
2022-12-11T07:13:40.291Z,2.65
2022-12-11T07:16:10.870Z,2.70
2022-12-11T07:18:39.110Z,2.70
2022-12-11T07:21:07.217Z,2.55
2022-12-11T07:26:10.022Z,2.85
2022-12-11T07:28:37.187Z,2.97
2022-12-11T07:31:13.258Z,3.05
2022-12-11T07:33:40.617Z,3.00
2022-12-11T07:36:09.384Z,3.13
2022-12-11T07:38:36.766Z,3.00
2022-12-11T07:41:06.440Z,3.03
2022-12-11T07:43:35.307Z,3.20
2022-12-11T07:46:04.248Z,3.25
2022-12-11T07:48:31.191Z,3.38
2022-12-11T07:51:12.090Z,3.50
2022-12-11T07:53:39.079Z,3.72
2022-12-11T07:56:06.722Z,3.47
2022-12-11T07:58:33.613Z,3.28
2022-12-11T08:01:00.593Z,3.28
2022-12-11T08:03:27.388Z,4.10
2022-12-11T08:05:54.107Z,3.53
2022-12-11T08:08:20.931Z,3.92
2022-12-11T08:10:47.788Z,9.07
2022-12-11T08:13:15.291Z,9.98
2022-12-11T08:15:42.093Z,8.32
2022-12-11T08:18:08.877Z,7.25
2022-12-11T08:20:39.105Z,6.68
2022-12-11T08:23:06.500Z,6.22
2022-12-11T08:25:33.716Z,5.35
2022-12-11T08:28:00.965Z,5.50
2022-12-11T08:30:28.276Z,5.23
2022-12-11T08:32:55.133Z,5.00
2022-12-11T08:35:22.401Z,4.60
2022-12-11T08:37:49.135Z,4.17
2022-12-11T08:40:15.887Z,4.95
2022-12-11T08:42:42.697Z,4.25
2022-12-11T08:45:10.279Z,4.47
2022-12-11T08:47:37.126Z,4.28
2022-12-11T08:50:04.521Z,4.15
2022-12-11T08:52:31.553Z,4.07
2022-12-11T08:54:58.509Z,5.68
2022-12-11T08:57:27.636Z,5.40
2022-12-11T08:59:54.492Z,5.50
2022-12-11T09:02:21.516Z,4.45
2022-12-11T09:04:48.743Z,4.68
2022-12-11T09:07:15.799Z,4.78
2022-12-11T09:09:42.542Z,5.07
2022-12-11T09:12:09.315Z,4.38
2022-12-11T09:14:36.320Z,4.32
2022-12-11T09:17:05.375Z,4.43
2022-12-11T09:19:32.764Z,4.15
2022-12-11T09:21:59.609Z,4.15
2022-12-11T09:24:26.356Z,4.72
2022-12-11T09:26:54.566Z,4.70
2022-12-11T09:31:49.184Z,4.90
2022-12-11T09:34:16.108Z,4.75
2022-12-11T09:36:44.228Z,10.65
2022-12-11T09:44:18.252Z,9.50
2022-12-11T09:46:47.344Z,8.90
2022-12-11T09:49:34.299Z,8.20
2022-12-11T09:52:26.495Z,7.78
2022-12-11T09:54:57.714Z,6.53
2022-12-11T09:57:48.671Z,6.78
2022-12-11T10:00:29.629Z,5.95
2022-12-11T10:03:10.393Z,5.88
2022-12-11T10:06:12.929Z,5.53
2022-12-11T10:08:54.931Z,5.07
2022-12-11T10:11:58.630Z,4.68
2022-12-11T10:15:02.654Z,5.03
2022-12-11T10:17:32.731Z,4.43
2022-12-11T10:20:18.739Z,4.60
2022-12-11T10:22:46.236Z,5.15
2022-12-11T10:25:37.795Z,4.60
2022-12-11T10:28:16.042Z,4.13
2022-12-11T10:31:00.346Z,4.38
2022-12-11T10:33:52.885Z,4.05
2022-12-11T10:36:30.347Z,4.13
2022-12-11T10:38:57.806Z,4.10
2022-12-11T10:41:36.721Z,4.53
2022-12-11T10:44:25.337Z,4.43
2022-12-11T10:47:09.141Z,4.15
2022-12-11T10:49:37.167Z,4.57
2022-12-11T10:52:13.040Z,3.90
2022-12-11T10:54:43.638Z,4.22
2022-12-11T10:57:14.314Z,4.40
2022-12-11T10:59:46.117Z,8.32
2022-12-11T11:02:25.236Z,11.43
2022-12-11T11:04:54.188Z,12.23
2022-12-11T11:07:30.282Z,9.68
2022-12-11T11:10:12.152Z,7.88
2022-12-11T11:12:44.527Z,7.95
2022-12-11T11:15:26.272Z,6.97
2022-12-11T11:17:56.449Z,6.50
2022-12-11T11:20:29.170Z,6.47
2022-12-11T11:23:04.057Z,5.93
2022-12-11T11:25:33.322Z,6.18
2022-12-11T11:28:06.445Z,6.05
2022-12-11T11:30:39.055Z,5.88
2022-12-11T11:33:26.187Z,5.78
2022-12-11T11:36:01.081Z,5.53
2022-12-11T11:38:40.084Z,4.78
2022-12-11T11:41:31.929Z,4.95
2022-12-11T11:44:02.982Z,5.07
2022-12-11T11:46:36.582Z,5.50
2022-12-11T11:49:24.894Z,5.28
2022-12-11T11:52:17.800Z,5.05
2022-12-11T11:54:53.784Z,4.90
2022-12-11T11:57:48.281Z,5.38
2022-12-11T12:00:18.300Z,4.60
2022-12-11T12:02:47.119Z,4.90
2022-12-11T12:05:14.075Z,4.90
2022-12-11T12:08:05.128Z,5.28
2022-12-11T12:10:43.977Z,5.00
2022-12-11T12:13:49.181Z,5.18
2022-12-11T12:16:58.185Z,4.90
2022-12-11T12:19:36.343Z,5.63
2022-12-11T12:22:30.837Z,4.80
2022-12-11T12:25:03.820Z,5.55
2022-12-11T12:30:23.433Z,5.80
2022-12-11T12:33:20.094Z,5.78
2022-12-11T12:35:52.641Z,5.88
2022-12-11T12:38:44.179Z,5.85
2022-12-11T12:41:39.281Z,5.28
2022-12-11T12:44:20.140Z,5.28
2022-12-11T12:46:56.553Z,4.60
2022-12-11T12:49:26.598Z,5.32
2022-12-11T12:51:53.925Z,5.57
2022-12-11T12:54:21.956Z,5.40
2022-12-11T12:59:25.318Z,5.53
2022-12-11T13:02:00.497Z,5.05
2022-12-11T13:05:01.713Z,5.05
2022-12-11T13:07:31.544Z,5.40
2022-12-11T13:10:02.591Z,5.13
2022-12-11T13:12:40.503Z,12.48
2022-12-11T13:15:43.956Z,13.55
2022-12-11T13:18:35.030Z,12.00
2022-12-11T13:21:03.827Z,10.85
2022-12-11T13:23:33.559Z,10.50
2022-12-11T13:26:04.092Z,10.73
2022-12-11T13:28:46.001Z,10.00
2022-12-11T13:31:15.607Z,9.40
2022-12-11T13:33:55.906Z,8.98
2022-12-11T13:36:37.751Z,8.93
2022-12-11T13:39:24.077Z,8.25
2022-12-11T13:41:55.329Z,8.35
2022-12-11T13:44:26.682Z,7.43
2022-12-11T13:46:56.631Z,7.47
2022-12-11T13:49:27.140Z,7.22
2022-12-11T13:51:58.991Z,6.50
2022-12-11T13:54:27.545Z,6.78
2022-12-11T13:57:16.383Z,6.43
2022-12-11T13:59:48.936Z,6.22
2022-12-11T14:02:32.736Z,6.00
2022-12-11T14:05:03.292Z,6.03
2022-12-11T14:07:37.082Z,6.15
2022-12-11T14:10:09.839Z,6.57
2022-12-11T14:12:37.372Z,6.20
2022-12-11T14:15:05.384Z,5.67
2022-12-11T14:17:34.736Z,6.28
2022-12-11T14:20:07.925Z,6.05
2022-12-11T14:22:34.839Z,5.97
2022-12-11T14:25:03.684Z,5.70
2022-12-11T14:27:31.086Z,5.60
2022-12-11T14:29:57.928Z,5.55
2022-12-11T14:32:44.784Z,5.15
2022-12-11T14:35:28.292Z,5.82
2022-12-11T14:37:57.761Z,5.50
2022-12-11T14:40:29.988Z,5.40
2022-12-11T14:43:01.417Z,6.25
2022-12-11T14:45:36.659Z,5.82
2022-12-11T14:48:17.866Z,7.68
2022-12-11T14:50:48.383Z,13.07
2022-12-11T14:53:20.779Z,12.00
2022-12-11T14:55:49.722Z,10.40
2022-12-11T14:58:23.969Z,8.63
2022-12-11T15:01:00.164Z,8.98
2022-12-11T15:03:33.520Z,7.82
2022-12-11T15:06:02.346Z,7.13
2022-12-11T15:08:35.165Z,6.93
2022-12-11T15:11:14.214Z,7.00
2022-12-11T15:13:54.924Z,6.38
2022-12-11T15:16:25.126Z,5.72
2022-12-11T15:18:54.413Z,5.75
2022-12-11T15:21:33.862Z,5.70
2022-12-11T15:24:03.470Z,6.00
2022-12-11T15:26:38.779Z,6.10
2022-12-11T15:29:37.195Z,5.95
2022-12-11T15:32:09.901Z,8.23
2022-12-11T15:34:49.977Z,7.18
2022-12-11T15:37:22.978Z,7.15
2022-12-11T15:39:50.131Z,6.45
2022-12-11T15:42:24.406Z,6.95
2022-12-11T15:44:51.743Z,6.78
2022-12-11T15:47:25.223Z,7.03
2022-12-11T15:49:57.998Z,6.15
2022-12-11T15:52:25.477Z,6.03
2022-12-11T15:54:52.245Z,6.10
2022-12-11T15:57:21.496Z,5.72
2022-12-11T15:59:51.742Z,5.80
2022-12-11T16:02:19.087Z,5.82
2022-12-11T16:04:45.953Z,5.60
2022-12-11T16:07:19.058Z,8.27
2022-12-11T16:09:46.743Z,7.68
2022-12-11T16:12:14.389Z,7.78
2022-12-11T16:14:46.050Z,7.15
2022-12-11T16:17:15.176Z,7.10
2022-12-11T16:19:43.564Z,6.22
2022-12-11T16:22:11.508Z,5.82
2022-12-11T16:24:39.038Z,5.88
2022-12-11T16:27:07.357Z,6.05
2022-12-11T16:29:39.603Z,5.85
2022-12-11T16:32:08.331Z,5.85
2022-12-11T16:34:37.253Z,5.47
2022-12-11T16:37:05.580Z,5.82
2022-12-11T16:39:34.981Z,5.47
2022-12-11T16:42:01.722Z,5.60
2022-12-11T16:44:28.496Z,5.07
2022-12-11T16:46:58.186Z,5.10
2022-12-11T16:49:25.227Z,4.80
2022-12-11T16:51:51.979Z,5.18
2022-12-11T16:54:18.935Z,5.03
2022-12-11T16:56:45.740Z,5.00
2022-12-11T16:59:13.026Z,4.97
2022-12-11T17:01:40.612Z,4.80
2022-12-11T17:04:09.900Z,4.40
2022-12-11T17:06:37.225Z,4.55
2022-12-11T17:09:04.054Z,4.70
2022-12-11T17:11:31.301Z,4.70
2022-12-11T17:13:59.698Z,4.70
2022-12-11T17:16:30.322Z,4.25
2022-12-11T17:18:58.233Z,4.40
2022-12-11T17:21:25.919Z,4.63
2022-12-11T17:23:53.190Z,4.70
2022-12-11T17:26:20.337Z,4.70
2022-12-11T17:28:47.633Z,4.38
2022-12-11T17:31:17.478Z,3.70
2022-12-11T17:33:46.195Z,4.78
2022-12-11T17:36:15.846Z,4.50
2022-12-11T17:38:43.135Z,4.80
2022-12-11T17:41:18.370Z,4.50
2022-12-11T17:43:48.185Z,4.47
2022-12-11T17:46:18.160Z,4.60
2022-12-11T17:48:45.665Z,4.32
2022-12-11T17:51:14.401Z,4.43
2022-12-11T17:53:41.214Z,4.07
2022-12-11T17:56:08.758Z,4.53
2022-12-11T17:58:35.646Z,4.00
2022-12-11T18:01:07.446Z,4.60
2022-12-11T18:03:35.125Z,4.50
2022-12-11T18:06:06.002Z,4.53
2022-12-11T18:08:33.149Z,4.57
2022-12-11T18:11:11.658Z,4.60
2022-12-11T18:13:39.124Z,4.32
2022-12-11T18:16:10.706Z,4.13
2022-12-11T18:18:37.970Z,4.18
2022-12-11T18:21:05.455Z,4.50
2022-12-11T18:23:32.306Z,4.45
2022-12-11T18:25:59.077Z,4.38
2022-12-11T18:28:31.661Z,4.55
2022-12-11T18:31:02.657Z,4.45
2022-12-11T18:33:33.270Z,4.18
2022-12-11T18:36:00.046Z,3.95
2022-12-11T18:38:26.839Z,3.95
2022-12-11T18:40:53.588Z,4.25
2022-12-11T18:43:20.342Z,4.03
2022-12-11T18:45:47.168Z,4.10
2022-12-11T18:48:14.920Z,4.22
2022-12-11T18:50:46.064Z,3.80
2022-12-11T18:53:13.264Z,4.07
2022-12-11T18:55:47.580Z,3.78
2022-12-11T18:58:16.711Z,4.30
2022-12-11T19:00:44.219Z,3.95
2022-12-11T19:03:14.176Z,4.05
2022-12-11T19:05:43.785Z,4.43
2022-12-11T19:08:13.869Z,4.15
2022-12-11T19:10:45.085Z,3.85
2022-12-11T19:13:13.092Z,3.80
2022-12-11T19:15:41.772Z,3.88
2022-12-11T19:18:11.413Z,3.60
2022-12-11T19:20:48.878Z,3.72
2022-12-11T19:25:45.432Z,4.00
2022-12-11T19:28:12.890Z,4.10
2022-12-11T19:30:47.629Z,3.60
2022-12-11T19:33:15.214Z,4.07
2022-12-11T19:35:42.706Z,3.92
2022-12-11T19:38:09.739Z,3.55
2022-12-11T19:40:41.498Z,3.83
2022-12-11T19:43:08.655Z,4.43
2022-12-11T19:45:36.216Z,4.47
2022-12-11T19:48:03.447Z,4.72
2022-12-11T19:50:30.732Z,5.27
2022-12-11T19:52:58.044Z,4.90
2022-12-11T19:55:24.793Z,4.90
2022-12-11T19:57:52.043Z,5.28
2022-12-11T20:00:20.206Z,4.47
2022-12-11T20:05:14.327Z,3.78
2022-12-11T20:07:41.542Z,3.72
2022-12-11T20:10:09.270Z,3.80
2022-12-11T20:12:36.073Z,4.05
2022-12-11T20:15:05.331Z,5.07
2022-12-11T20:17:33.455Z,5.00
2022-12-11T20:20:00.344Z,4.80
2022-12-11T20:22:29.503Z,6.65
2022-12-11T20:24:56.982Z,6.13
2022-12-11T20:27:24.166Z,5.28
2022-12-11T20:29:50.935Z,4.70
2022-12-11T20:32:18.297Z,4.63
2022-12-11T20:34:45.071Z,4.70
2022-12-11T20:37:12.454Z,4.75
2022-12-11T20:39:39.886Z,4.22
2022-12-11T20:42:10.055Z,4.57
2022-12-11T20:44:37.509Z,4.00
2022-12-11T20:47:06.667Z,4.20
2022-12-11T20:49:33.767Z,4.00
2022-12-11T20:52:02.932Z,3.83
2022-12-11T20:54:30.166Z,3.92
2022-12-11T20:56:57.456Z,3.77
2022-12-11T20:59:24.296Z,3.90
2022-12-11T21:01:51.673Z,3.95
2022-12-11T21:04:19.076Z,4.10
2022-12-11T21:06:46.371Z,3.78
2022-12-11T21:09:17.711Z,3.80
2022-12-11T21:11:46.043Z,3.72
2022-12-11T21:14:14.628Z,4.00
2022-12-11T21:16:41.940Z,3.90
2022-12-11T21:19:13.679Z,3.75
2022-12-11T21:21:45.184Z,3.67
2022-12-11T21:24:21.212Z,4.00
2022-12-11T21:26:50.026Z,3.35
2022-12-11T21:29:17.623Z,3.75
2022-12-11T21:31:44.835Z,3.90
2022-12-11T21:34:14.071Z,3.80
2022-12-11T21:36:41.090Z,3.50
2022-12-11T21:39:09.032Z,4.15
2022-12-11T21:41:36.537Z,3.72
2022-12-11T21:45:21.222Z,4.30
2022-12-11T21:46:51.067Z,3.50
2022-12-11T21:49:18.054Z,3.65
2022-12-11T21:51:47.417Z,4.00
2022-12-11T21:54:17.448Z,3.55
2022-12-11T21:56:45.006Z,3.67
2022-12-11T21:59:14.241Z,3.50
2022-12-11T22:01:43.825Z,3.40
2022-12-11T22:04:12.625Z,3.83
2022-12-11T22:06:42.047Z,3.72
2022-12-11T22:09:10.123Z,3.67
2022-12-11T22:11:36.887Z,3.28
2022-12-11T22:14:04.116Z,3.75
2022-12-11T22:16:31.084Z,3.77
2022-12-11T22:18:58.155Z,3.75
2022-12-11T22:21:25.854Z,3.58
2022-12-11T22:23:52.945Z,3.70
2022-12-11T22:26:23.497Z,3.13
2022-12-11T22:28:51.504Z,3.30
2022-12-11T22:31:22.979Z,3.40
2022-12-11T22:33:53.588Z,3.47
2022-12-11T22:36:21.714Z,3.67
2022-12-11T22:41:29.285Z,3.65
2022-12-11T22:43:57.037Z,3.60
2022-12-11T22:46:27.717Z,3.58
2022-12-11T22:48:55.431Z,3.58
2022-12-11T22:51:22.950Z,3.22
2022-12-11T22:53:50.322Z,3.40
2022-12-11T22:56:17.741Z,3.13
2022-12-11T22:58:44.792Z,3.53
2022-12-11T23:01:14.935Z,3.53
2022-12-11T23:03:44.149Z,3.35
2022-12-11T23:06:13.677Z,3.42
2022-12-11T23:08:41.550Z,3.38
2022-12-11T23:11:27.326Z,3.03
2022-12-11T23:13:54.829Z,3.20
2022-12-11T23:16:25.722Z,3.40
2022-12-11T23:18:54.237Z,3.30
2022-12-11T23:21:22.621Z,3.40
2022-12-11T23:23:50.523Z,3.47
2022-12-11T23:26:19.214Z,3.20
2022-12-11T23:28:46.934Z,3.35
2022-12-11T23:31:14.583Z,3.47
2022-12-11T23:33:42.050Z,3.50
2022-12-11T23:36:09.649Z,3.10
2022-12-11T23:38:37.034Z,3.53
2022-12-11T23:41:04.831Z,3.22
2022-12-11T23:43:32.084Z,3.33
2022-12-11T23:45:58.888Z,3.40
2022-12-11T23:48:25.937Z,3.30
2022-12-11T23:50:54.829Z,3.42
2022-12-11T23:53:21.554Z,3.20
2022-12-11T23:55:50.549Z,3.22
2022-12-11T23:58:17.306Z,3.50
